sensor_id;sensor_type;location;lat;lon;timestamp;temperature;humidity
68235;DHT22;55052;52.056;5.296;2023-04-24T00:01:28;11.10;93.00
68235;DHT22;55052;52.056;5.296;2023-04-24T00:03:57;11.10;93.10
68235;DHT22;55052;52.056;5.296;2023-04-24T00:06:26;11.10;93.20
68235;DHT22;55052;52.056;5.296;2023-04-24T00:09:00;11.10;93.20
68235;DHT22;55052;52.056;5.296;2023-04-24T00:11:27;11.00;93.20
68235;DHT22;55052;52.056;5.296;2023-04-24T00:13:54;11.00;93.30
68235;DHT22;55052;52.056;5.296;2023-04-24T00:16:21;11.00;93.40
68235;DHT22;55052;52.056;5.296;2023-04-24T00:18:48;11.00;93.50
68235;DHT22;55052;52.056;5.296;2023-04-24T00:21:15;11.00;93.50
68235;DHT22;55052;52.056;5.296;2023-04-24T00:23:44;11.00;93.50
68235;DHT22;55052;52.056;5.296;2023-04-24T00:26:11;11.00;93.50
68235;DHT22;55052;52.056;5.296;2023-04-24T00:28:37;11.00;93.60
68235;DHT22;55052;52.056;5.296;2023-04-24T00:31:04;11.00;93.60
68235;DHT22;55052;52.056;5.296;2023-04-24T00:33:31;11.00;93.60
68235;DHT22;55052;52.056;5.296;2023-04-24T00:35:58;11.00;93.60
68235;DHT22;55052;52.056;5.296;2023-04-24T00:38:25;11.00;93.60
68235;DHT22;55052;52.056;5.296;2023-04-24T00:40:52;11.00;93.70
68235;DHT22;55052;52.056;5.296;2023-04-24T00:43:20;11.00;93.70
68235;DHT22;55052;52.056;5.296;2023-04-24T00:45:47;11.00;93.70
68235;DHT22;55052;52.056;5.296;2023-04-24T00:48:14;11.00;93.80
68235;DHT22;55052;52.056;5.296;2023-04-24T00:50:42;11.00;93.70
68235;DHT22;55052;52.056;5.296;2023-04-24T00:53:09;11.00;93.70
68235;DHT22;55052;52.056;5.296;2023-04-24T00:55:36;11.00;93.80
68235;DHT22;55052;52.056;5.296;2023-04-24T00:58:04;11.00;93.90
68235;DHT22;55052;52.056;5.296;2023-04-24T01:00:31;11.00;93.90
68235;DHT22;55052;52.056;5.296;2023-04-24T01:02:59;11.00;93.90
68235;DHT22;55052;52.056;5.296;2023-04-24T01:05:28;11.00;94.00
68235;DHT22;55052;52.056;5.296;2023-04-24T01:07:55;11.00;94.10
68235;DHT22;55052;52.056;5.296;2023-04-24T01:10:23;11.00;94.00
68235;DHT22;55052;52.056;5.296;2023-04-24T01:12:50;11.00;94.10
68235;DHT22;55052;52.056;5.296;2023-04-24T01:15:18;11.00;94.10
68235;DHT22;55052;52.056;5.296;2023-04-24T01:17:44;11.00;94.10
68235;DHT22;55052;52.056;5.296;2023-04-24T01:20:12;11.00;94.50
68235;DHT22;55052;52.056;5.296;2023-04-24T01:22:40;11.00;94.20
68235;DHT22;55052;52.056;5.296;2023-04-24T01:25:08;11.00;94.20
68235;DHT22;55052;52.056;5.296;2023-04-24T01:27:35;11.10;94.20
68235;DHT22;55052;52.056;5.296;2023-04-24T01:30:02;11.00;94.20
68235;DHT22;55052;52.056;5.296;2023-04-24T01:32:29;11.00;94.20
68235;DHT22;55052;52.056;5.296;2023-04-24T01:34:56;11.00;94.20
68235;DHT22;55052;52.056;5.296;2023-04-24T01:37:23;11.10;94.70
68235;DHT22;55052;52.056;5.296;2023-04-24T01:39:49;11.10;94.30
68235;DHT22;55052;52.056;5.296;2023-04-24T01:42:16;11.10;94.30
68235;DHT22;55052;52.056;5.296;2023-04-24T01:44:43;11.10;94.30
68235;DHT22;55052;52.056;5.296;2023-04-24T01:47:11;11.10;94.40
68235;DHT22;55052;52.056;5.296;2023-04-24T01:49:38;11.10;94.40
68235;DHT22;55052;52.056;5.296;2023-04-24T01:52:05;11.10;94.40
68235;DHT22;55052;52.056;5.296;2023-04-24T01:54:32;11.10;94.40
68235;DHT22;55052;52.056;5.296;2023-04-24T01:56:59;11.10;94.40
68235;DHT22;55052;52.056;5.296;2023-04-24T01:59:28;11.10;94.40
68235;DHT22;55052;52.056;5.296;2023-04-24T02:01:55;11.10;94.40
68235;DHT22;55052;52.056;5.296;2023-04-24T02:04:22;11.10;94.50
68235;DHT22;55052;52.056;5.296;2023-04-24T02:06:48;11.10;94.50
68235;DHT22;55052;52.056;5.296;2023-04-24T02:09:15;11.10;94.50
68235;DHT22;55052;52.056;5.296;2023-04-24T02:11:42;11.10;94.50
68235;DHT22;55052;52.056;5.296;2023-04-24T02:14:09;11.10;94.50
68235;DHT22;55052;52.056;5.296;2023-04-24T02:16:36;11.10;94.60
68235;DHT22;55052;52.056;5.296;2023-04-24T02:19:03;11.10;94.60
68235;DHT22;55052;52.056;5.296;2023-04-24T02:21:30;11.10;94.60
68235;DHT22;55052;52.056;5.296;2023-04-24T02:23:57;11.10;94.60
68235;DHT22;55052;52.056;5.296;2023-04-24T02:26:24;11.10;94.60
68235;DHT22;55052;52.056;5.296;2023-04-24T02:28:51;11.10;94.60
68235;DHT22;55052;52.056;5.296;2023-04-24T02:31:18;11.10;94.60
68235;DHT22;55052;52.056;5.296;2023-04-24T02:33:45;11.10;94.60
68235;DHT22;55052;52.056;5.296;2023-04-24T02:36:11;11.10;94.90
68235;DHT22;55052;52.056;5.296;2023-04-24T02:38:39;11.10;94.60
68235;DHT22;55052;52.056;5.296;2023-04-24T02:41:06;11.10;94.60
68235;DHT22;55052;52.056;5.296;2023-04-24T02:43:33;11.10;94.60
68235;DHT22;55052;52.056;5.296;2023-04-24T02:46:00;11.10;94.50
68235;DHT22;55052;52.056;5.296;2023-04-24T02:48:27;11.10;94.50
68235;DHT22;55052;52.056;5.296;2023-04-24T02:50:54;11.10;94.50
68235;DHT22;55052;52.056;5.296;2023-04-24T02:53:21;11.10;94.60
68235;DHT22;55052;52.056;5.296;2023-04-24T02:55:47;11.10;94.50
68235;DHT22;55052;52.056;5.296;2023-04-24T02:58:14;11.10;94.60
68235;DHT22;55052;52.056;5.296;2023-04-24T03:00:42;11.10;94.50
68235;DHT22;55052;52.056;5.296;2023-04-24T03:03:09;11.10;94.60
68235;DHT22;55052;52.056;5.296;2023-04-24T03:05:36;11.10;94.90
68235;DHT22;55052;52.056;5.296;2023-04-24T03:08:03;11.10;94.60
68235;DHT22;55052;52.056;5.296;2023-04-24T03:10:30;11.10;94.60
68235;DHT22;55052;52.056;5.296;2023-04-24T03:12:57;11.10;94.60
68235;DHT22;55052;52.056;5.296;2023-04-24T03:15:24;11.10;94.60
68235;DHT22;55052;52.056;5.296;2023-04-24T03:17:50;11.10;94.60
68235;DHT22;55052;52.056;5.296;2023-04-24T03:20:19;11.10;94.50
68235;DHT22;55052;52.056;5.296;2023-04-24T03:22:45;11.10;94.60
68235;DHT22;55052;52.056;5.296;2023-04-24T03:25:12;11.10;94.60
68235;DHT22;55052;52.056;5.296;2023-04-24T03:27:39;11.10;94.60
68235;DHT22;55052;52.056;5.296;2023-04-24T03:30:07;11.10;94.70
68235;DHT22;55052;52.056;5.296;2023-04-24T03:32:34;11.10;94.70
68235;DHT22;55052;52.056;5.296;2023-04-24T03:35:00;11.10;94.60
68235;DHT22;55052;52.056;5.296;2023-04-24T03:37:27;11.10;94.60
68235;DHT22;55052;52.056;5.296;2023-04-24T03:39:54;11.10;94.50
68235;DHT22;55052;52.056;5.296;2023-04-24T03:42:21;11.10;94.50
68235;DHT22;55052;52.056;5.296;2023-04-24T03:44:47;11.10;94.50
68235;DHT22;55052;52.056;5.296;2023-04-24T03:47:14;11.00;94.50
68235;DHT22;55052;52.056;5.296;2023-04-24T03:49:41;11.00;94.50
68235;DHT22;55052;52.056;5.296;2023-04-24T03:52:08;11.00;94.40
68235;DHT22;55052;52.056;5.296;2023-04-24T03:54:35;11.00;94.50
68235;DHT22;55052;52.056;5.296;2023-04-24T03:57:02;11.00;94.50
68235;DHT22;55052;52.056;5.296;2023-04-24T03:59:30;11.00;94.50
68235;DHT22;55052;52.056;5.296;2023-04-24T04:01:57;11.00;94.50
68235;DHT22;55052;52.056;5.296;2023-04-24T04:04:23;11.00;94.50
68235;DHT22;55052;52.056;5.296;2023-04-24T04:06:50;11.00;94.50
68235;DHT22;55052;52.056;5.296;2023-04-24T04:09:17;11.00;94.50
68235;DHT22;55052;52.056;5.296;2023-04-24T04:11:44;11.00;94.50
68235;DHT22;55052;52.056;5.296;2023-04-24T04:14:11;11.00;94.50
68235;DHT22;55052;52.056;5.296;2023-04-24T04:16:37;11.00;94.50
68235;DHT22;55052;52.056;5.296;2023-04-24T04:19:05;11.00;94.50
68235;DHT22;55052;52.056;5.296;2023-04-24T04:21:32;11.00;94.50
68235;DHT22;55052;52.056;5.296;2023-04-24T04:23:58;11.00;94.50
68235;DHT22;55052;52.056;5.296;2023-04-24T04:26:25;11.00;94.50
68235;DHT22;55052;52.056;5.296;2023-04-24T04:28:52;11.10;94.50
68235;DHT22;55052;52.056;5.296;2023-04-24T04:31:20;11.10;94.50
68235;DHT22;55052;52.056;5.296;2023-04-24T04:33:47;11.10;94.50
68235;DHT22;55052;52.056;5.296;2023-04-24T04:36:14;11.10;94.40
68235;DHT22;55052;52.056;5.296;2023-04-24T04:38:41;11.10;94.40
68235;DHT22;55052;52.056;5.296;2023-04-24T04:41:09;11.10;94.40
68235;DHT22;55052;52.056;5.296;2023-04-24T04:43:36;11.10;94.30
68235;DHT22;55052;52.056;5.296;2023-04-24T04:46:04;11.10;94.30
68235;DHT22;55052;52.056;5.296;2023-04-24T04:48:31;11.10;94.30
68235;DHT22;55052;52.056;5.296;2023-04-24T04:50:58;11.10;94.30
68235;DHT22;55052;52.056;5.296;2023-04-24T04:53:25;11.10;94.30
68235;DHT22;55052;52.056;5.296;2023-04-24T04:55:52;11.10;94.30
68235;DHT22;55052;52.056;5.296;2023-04-24T04:58:19;11.10;94.20
68235;DHT22;55052;52.056;5.296;2023-04-24T05:00:46;11.20;94.20
68235;DHT22;55052;52.056;5.296;2023-04-24T05:03:13;11.10;94.20
68235;DHT22;55052;52.056;5.296;2023-04-24T05:05:44;11.10;94.20
68235;DHT22;55052;52.056;5.296;2023-04-24T05:08:11;11.10;94.10
68235;DHT22;55052;52.056;5.296;2023-04-24T05:10:52;11.10;94.10
68235;DHT22;55052;52.056;5.296;2023-04-24T05:13:19;11.10;94.20
68235;DHT22;55052;52.056;5.296;2023-04-24T05:15:57;11.10;94.20
68235;DHT22;55052;52.056;5.296;2023-04-24T05:18:24;11.10;94.10
68235;DHT22;55052;52.056;5.296;2023-04-24T05:20:51;11.10;94.10
68235;DHT22;55052;52.056;5.296;2023-04-24T05:23:18;11.10;94.10
68235;DHT22;55052;52.056;5.296;2023-04-24T05:25:45;11.10;94.10
68235;DHT22;55052;52.056;5.296;2023-04-24T05:28:12;11.10;94.10
68235;DHT22;55052;52.056;5.296;2023-04-24T05:30:39;11.10;94.10
68235;DHT22;55052;52.056;5.296;2023-04-24T05:33:06;11.00;94.00
68235;DHT22;55052;52.056;5.296;2023-04-24T05:35:33;11.10;94.10
68235;DHT22;55052;52.056;5.296;2023-04-24T05:38:00;11.00;94.10
68235;DHT22;55052;52.056;5.296;2023-04-24T05:40:27;11.00;94.10
68235;DHT22;55052;52.056;5.296;2023-04-24T05:42:54;11.00;94.10
68235;DHT22;55052;52.056;5.296;2023-04-24T05:45:21;11.00;94.10
68235;DHT22;55052;52.056;5.296;2023-04-24T05:47:48;11.00;94.10
68235;DHT22;55052;52.056;5.296;2023-04-24T05:50:14;11.00;94.20
68235;DHT22;55052;52.056;5.296;2023-04-24T05:52:41;11.00;94.20
68235;DHT22;55052;52.056;5.296;2023-04-24T05:55:08;11.00;94.10
68235;DHT22;55052;52.056;5.296;2023-04-24T05:57:35;11.00;94.20
68235;DHT22;55052;52.056;5.296;2023-04-24T06:00:02;11.00;94.10
68235;DHT22;55052;52.056;5.296;2023-04-24T06:02:30;10.90;94.00
68235;DHT22;55052;52.056;5.296;2023-04-24T06:04:59;10.80;93.90
68235;DHT22;55052;52.056;5.296;2023-04-24T06:07:26;10.80;93.90
68235;DHT22;55052;52.056;5.296;2023-04-24T06:09:53;10.70;93.90
68235;DHT22;55052;52.056;5.296;2023-04-24T06:12:20;10.70;94.00
68235;DHT22;55052;52.056;5.296;2023-04-24T06:14:47;10.70;94.00
68235;DHT22;55052;52.056;5.296;2023-04-24T06:17:14;10.60;94.00
68235;DHT22;55052;52.056;5.296;2023-04-24T06:19:41;10.60;94.00
68235;DHT22;55052;52.056;5.296;2023-04-24T06:22:08;10.60;94.10
68235;DHT22;55052;52.056;5.296;2023-04-24T06:24:36;10.50;94.10
68235;DHT22;55052;52.056;5.296;2023-04-24T06:27:03;10.50;94.10
68235;DHT22;55052;52.056;5.296;2023-04-24T06:29:30;10.50;94.10
68235;DHT22;55052;52.056;5.296;2023-04-24T06:31:56;10.50;94.20
68235;DHT22;55052;52.056;5.296;2023-04-24T06:34:23;10.50;94.30
68235;DHT22;55052;52.056;5.296;2023-04-24T06:36:51;10.50;94.30
68235;DHT22;55052;52.056;5.296;2023-04-24T06:39:18;10.50;94.30
68235;DHT22;55052;52.056;5.296;2023-04-24T06:41:45;10.50;94.30
68235;DHT22;55052;52.056;5.296;2023-04-24T06:44:11;10.40;94.30
68235;DHT22;55052;52.056;5.296;2023-04-24T06:46:38;10.40;94.30
68235;DHT22;55052;52.056;5.296;2023-04-24T06:49:07;10.40;94.40
68235;DHT22;55052;52.056;5.296;2023-04-24T06:51:34;10.40;94.50
68235;DHT22;55052;52.056;5.296;2023-04-24T06:54:01;10.30;94.40
68235;DHT22;55052;52.056;5.296;2023-04-24T06:56:28;10.30;94.40
68235;DHT22;55052;52.056;5.296;2023-04-24T06:58:58;10.30;94.50
68235;DHT22;55052;52.056;5.296;2023-04-24T07:01:24;10.30;94.60
68235;DHT22;55052;52.056;5.296;2023-04-24T07:03:52;10.20;94.90
68235;DHT22;55052;52.056;5.296;2023-04-24T07:06:19;10.20;94.60
68235;DHT22;55052;52.056;5.296;2023-04-24T07:08:49;10.20;94.50
68235;DHT22;55052;52.056;5.296;2023-04-24T07:11:15;10.20;94.60
68235;DHT22;55052;52.056;5.296;2023-04-24T07:13:42;10.20;94.50
68235;DHT22;55052;52.056;5.296;2023-04-24T07:16:09;10.10;94.50
68235;DHT22;55052;52.056;5.296;2023-04-24T07:18:38;10.10;94.40
68235;DHT22;55052;52.056;5.296;2023-04-24T07:21:06;10.10;94.50
68235;DHT22;55052;52.056;5.296;2023-04-24T07:23:33;10.10;94.60
68235;DHT22;55052;52.056;5.296;2023-04-24T07:26:00;10.10;94.70
68235;DHT22;55052;52.056;5.296;2023-04-24T07:28:27;10.00;94.60
68235;DHT22;55052;52.056;5.296;2023-04-24T07:30:57;10.00;94.60
68235;DHT22;55052;52.056;5.296;2023-04-24T07:33:26;10.00;94.70
68235;DHT22;55052;52.056;5.296;2023-04-24T07:35:52;10.00;94.70
68235;DHT22;55052;52.056;5.296;2023-04-24T07:38:19;10.00;95.10
68235;DHT22;55052;52.056;5.296;2023-04-24T07:40:49;10.00;94.80
68235;DHT22;55052;52.056;5.296;2023-04-24T07:43:16;10.00;94.80
68235;DHT22;55052;52.056;5.296;2023-04-24T07:45:43;10.00;94.80
68235;DHT22;55052;52.056;5.296;2023-04-24T07:48:09;10.00;94.90
68235;DHT22;55052;52.056;5.296;2023-04-24T07:50:37;10.00;94.80
68235;DHT22;55052;52.056;5.296;2023-04-24T07:53:03;10.00;94.90
68235;DHT22;55052;52.056;5.296;2023-04-24T07:55:30;10.00;94.90
68235;DHT22;55052;52.056;5.296;2023-04-24T07:57:57;10.00;94.90
68235;DHT22;55052;52.056;5.296;2023-04-24T08:00:24;10.00;94.90
68235;DHT22;55052;52.056;5.296;2023-04-24T08:02:51;10.00;94.90
68235;DHT22;55052;52.056;5.296;2023-04-24T08:05:18;10.00;94.90
68235;DHT22;55052;52.056;5.296;2023-04-24T08:07:46;10.00;94.90
68235;DHT22;55052;52.056;5.296;2023-04-24T08:10:15;10.00;94.90
68235;DHT22;55052;52.056;5.296;2023-04-24T08:12:41;10.00;94.90
68235;DHT22;55052;52.056;5.296;2023-04-24T08:15:09;10.00;94.80
68235;DHT22;55052;52.056;5.296;2023-04-24T08:17:35;10.00;94.80
68235;DHT22;55052;52.056;5.296;2023-04-24T08:20:03;10.00;94.80
68235;DHT22;55052;52.056;5.296;2023-04-24T08:22:31;10.00;94.80
68235;DHT22;55052;52.056;5.296;2023-04-24T08:24:59;10.00;94.90
68235;DHT22;55052;52.056;5.296;2023-04-24T08:27:27;10.00;94.80
68235;DHT22;55052;52.056;5.296;2023-04-24T08:29:54;10.00;94.80
68235;DHT22;55052;52.056;5.296;2023-04-24T08:32:21;10.00;94.80
68235;DHT22;55052;52.056;5.296;2023-04-24T08:34:48;10.00;94.70
68235;DHT22;55052;52.056;5.296;2023-04-24T08:37:15;10.00;94.70
68235;DHT22;55052;52.056;5.296;2023-04-24T08:39:42;10.00;94.60
68235;DHT22;55052;52.056;5.296;2023-04-24T08:42:11;10.00;94.60
68235;DHT22;55052;52.056;5.296;2023-04-24T08:44:39;9.90;94.50
68235;DHT22;55052;52.056;5.296;2023-04-24T08:47:07;10.00;94.60
68235;DHT22;55052;52.056;5.296;2023-04-24T08:49:36;10.00;94.60
68235;DHT22;55052;52.056;5.296;2023-04-24T08:52:04;10.00;94.50
68235;DHT22;55052;52.056;5.296;2023-04-24T08:54:34;10.00;94.30
68235;DHT22;55052;52.056;5.296;2023-04-24T08:57:02;10.00;94.10
68235;DHT22;55052;52.056;5.296;2023-04-24T08:59:31;10.00;93.90
68235;DHT22;55052;52.056;5.296;2023-04-24T09:01:58;10.00;93.80
68235;DHT22;55052;52.056;5.296;2023-04-24T09:04:25;9.90;93.70
68235;DHT22;55052;52.056;5.296;2023-04-24T09:06:56;10.00;93.70
68235;DHT22;55052;52.056;5.296;2023-04-24T09:09:24;10.00;93.70
68235;DHT22;55052;52.056;5.296;2023-04-24T09:11:52;10.00;93.60
68235;DHT22;55052;52.056;5.296;2023-04-24T09:14:21;10.00;93.40
68235;DHT22;55052;52.056;5.296;2023-04-24T09:16:49;10.00;93.30
68235;DHT22;55052;52.056;5.296;2023-04-24T09:19:16;10.00;93.30
68235;DHT22;55052;52.056;5.296;2023-04-24T09:21:46;10.00;93.10
68235;DHT22;55052;52.056;5.296;2023-04-24T09:24:19;10.00;92.90
68235;DHT22;55052;52.056;5.296;2023-04-24T09:26:47;10.00;92.90
68235;DHT22;55052;52.056;5.296;2023-04-24T09:29:18;10.00;92.90
68235;DHT22;55052;52.056;5.296;2023-04-24T09:31:45;10.00;92.90
68235;DHT22;55052;52.056;5.296;2023-04-24T09:34:13;10.10;92.90
68235;DHT22;55052;52.056;5.296;2023-04-24T09:36:42;10.10;92.90
68235;DHT22;55052;52.056;5.296;2023-04-24T09:39:10;10.20;92.80
68235;DHT22;55052;52.056;5.296;2023-04-24T09:41:51;10.30;92.70
68235;DHT22;55052;52.056;5.296;2023-04-24T09:44:19;10.30;92.30
68235;DHT22;55052;52.056;5.296;2023-04-24T09:46:52;10.40;91.80
68235;DHT22;55052;52.056;5.296;2023-04-24T09:49:26;10.40;91.70
68235;DHT22;55052;52.056;5.296;2023-04-24T09:52:06;10.40;91.40
68235;DHT22;55052;52.056;5.296;2023-04-24T09:54:33;10.40;91.10
68235;DHT22;55052;52.056;5.296;2023-04-24T09:57:00;10.40;90.60
68235;DHT22;55052;52.056;5.296;2023-04-24T09:59:27;10.50;90.60
68235;DHT22;55052;52.056;5.296;2023-04-24T10:01:55;10.50;90.10
68235;DHT22;55052;52.056;5.296;2023-04-24T10:04:26;10.50;89.80
68235;DHT22;55052;52.056;5.296;2023-04-24T10:06:55;10.60;89.30
68235;DHT22;55052;52.056;5.296;2023-04-24T10:09:25;10.60;88.60
68235;DHT22;55052;52.056;5.296;2023-04-24T10:11:54;10.60;88.20
68235;DHT22;55052;52.056;5.296;2023-04-24T10:14:23;10.70;87.90
68235;DHT22;55052;52.056;5.296;2023-04-24T10:16:53;10.70;87.50
68235;DHT22;55052;52.056;5.296;2023-04-24T10:19:20;10.70;87.00
68235;DHT22;55052;52.056;5.296;2023-04-24T10:21:47;10.70;86.50
68235;DHT22;55052;52.056;5.296;2023-04-24T10:24:18;10.70;86.40
68235;DHT22;55052;52.056;5.296;2023-04-24T10:26:48;10.60;86.40
68235;DHT22;55052;52.056;5.296;2023-04-24T10:29:17;10.60;85.90
68235;DHT22;55052;52.056;5.296;2023-04-24T10:31:44;10.60;85.70
68235;DHT22;55052;52.056;5.296;2023-04-24T10:34:16;10.60;85.90
68235;DHT22;55052;52.056;5.296;2023-04-24T10:36:50;10.60;85.90
68235;DHT22;55052;52.056;5.296;2023-04-24T10:39:19;10.60;85.90
68235;DHT22;55052;52.056;5.296;2023-04-24T10:41:54;10.70;86.00
68235;DHT22;55052;52.056;5.296;2023-04-24T10:44:24;10.70;86.00
68235;DHT22;55052;52.056;5.296;2023-04-24T10:46:55;10.70;85.50
68235;DHT22;55052;52.056;5.296;2023-04-24T10:49:31;10.80;85.50
68235;DHT22;55052;52.056;5.296;2023-04-24T10:52:03;10.80;85.50
68235;DHT22;55052;52.056;5.296;2023-04-24T10:54:44;10.90;85.60
68235;DHT22;55052;52.056;5.296;2023-04-24T10:59:49;10.90;84.60
68235;DHT22;55052;52.056;5.296;2023-04-24T11:02:18;11.00;85.00
68235;DHT22;55052;52.056;5.296;2023-04-24T11:04:45;11.00;84.60
68235;DHT22;55052;52.056;5.296;2023-04-24T11:07:13;11.10;84.60
68235;DHT22;55052;52.056;5.296;2023-04-24T11:09:42;11.20;84.70
68235;DHT22;55052;52.056;5.296;2023-04-24T11:12:11;11.20;84.10
68235;DHT22;55052;52.056;5.296;2023-04-24T11:17:38;11.30;82.90
68235;DHT22;55052;52.056;5.296;2023-04-24T11:22:53;11.20;83.00
68235;DHT22;55052;52.056;5.296;2023-04-24T11:25:22;11.10;83.10
68235;DHT22;55052;52.056;5.296;2023-04-24T11:28:03;11.00;83.60
68235;DHT22;55052;52.056;5.296;2023-04-24T11:30:31;11.00;84.40
68235;DHT22;55052;52.056;5.296;2023-04-24T11:33:03;10.90;84.80
68235;DHT22;55052;52.056;5.296;2023-04-24T11:35:39;10.80;85.20
68235;DHT22;55052;52.056;5.296;2023-04-24T11:38:06;10.70;85.50
68235;DHT22;55052;52.056;5.296;2023-04-24T11:40:49;10.70;86.00
68235;DHT22;55052;52.056;5.296;2023-04-24T11:43:17;10.60;86.80
68235;DHT22;55052;52.056;5.296;2023-04-24T11:45:49;10.60;87.20
68235;DHT22;55052;52.056;5.296;2023-04-24T11:48:19;10.60;88.30
68235;DHT22;55052;52.056;5.296;2023-04-24T11:50:48;10.70;87.50
68235;DHT22;55052;52.056;5.296;2023-04-24T11:53:15;10.70;87.30
68235;DHT22;55052;52.056;5.296;2023-04-24T11:55:42;10.80;87.20
68235;DHT22;55052;52.056;5.296;2023-04-24T11:58:09;10.90;86.60
68235;DHT22;55052;52.056;5.296;2023-04-24T12:00:35;11.00;85.80
68235;DHT22;55052;52.056;5.296;2023-04-24T12:03:06;11.00;85.20
68235;DHT22;55052;52.056;5.296;2023-04-24T12:05:35;11.10;84.40
68235;DHT22;55052;52.056;5.296;2023-04-24T12:08:02;11.10;83.80
68235;DHT22;55052;52.056;5.296;2023-04-24T12:10:31;11.20;83.30
68235;DHT22;55052;52.056;5.296;2023-04-24T12:12:58;11.20;82.90
68235;DHT22;55052;52.056;5.296;2023-04-24T12:15:27;11.20;82.90
68235;DHT22;55052;52.056;5.296;2023-04-24T12:17:54;11.20;82.90
68235;DHT22;55052;52.056;5.296;2023-04-24T12:20:29;11.30;82.90
68235;DHT22;55052;52.056;5.296;2023-04-24T12:22:57;11.30;82.70
68235;DHT22;55052;52.056;5.296;2023-04-24T12:25:29;11.40;82.70
68235;DHT22;55052;52.056;5.296;2023-04-24T12:30:32;11.50;81.70
68235;DHT22;55052;52.056;5.296;2023-04-24T12:32:59;11.50;81.20
68235;DHT22;55052;52.056;5.296;2023-04-24T12:35:29;11.60;80.70
68235;DHT22;55052;52.056;5.296;2023-04-24T12:37:56;11.70;80.40
68235;DHT22;55052;52.056;5.296;2023-04-24T12:40:31;11.70;80.20
68235;DHT22;55052;52.056;5.296;2023-04-24T12:42:58;11.70;79.40
68235;DHT22;55052;52.056;5.296;2023-04-24T12:45:25;11.70;78.60
68235;DHT22;55052;52.056;5.296;2023-04-24T12:47:54;11.60;78.40
68235;DHT22;55052;52.056;5.296;2023-04-24T12:50:21;11.60;78.10
68235;DHT22;55052;52.056;5.296;2023-04-24T12:52:47;11.50;78.20
68235;DHT22;55052;52.056;5.296;2023-04-24T12:55:14;11.50;78.20
68235;DHT22;55052;52.056;5.296;2023-04-24T12:57:41;11.50;77.90
68235;DHT22;55052;52.056;5.296;2023-04-24T13:00:08;11.50;77.70
68235;DHT22;55052;52.056;5.296;2023-04-24T13:02:36;11.40;77.10
68235;DHT22;55052;52.056;5.296;2023-04-24T13:05:03;11.40;76.80
68235;DHT22;55052;52.056;5.296;2023-04-24T13:07:30;11.40;76.40
68235;DHT22;55052;52.056;5.296;2023-04-24T13:09:57;11.40;76.30
68235;DHT22;55052;52.056;5.296;2023-04-24T13:12:24;11.40;76.00
68235;DHT22;55052;52.056;5.296;2023-04-24T13:14:52;11.30;75.70
68235;DHT22;55052;52.056;5.296;2023-04-24T13:17:19;11.30;75.70
68235;DHT22;55052;52.056;5.296;2023-04-24T13:19:50;11.30;76.20
68235;DHT22;55052;52.056;5.296;2023-04-24T13:22:18;11.30;76.30
68235;DHT22;55052;52.056;5.296;2023-04-24T13:24:47;11.40;76.40
68235;DHT22;55052;52.056;5.296;2023-04-24T13:27:18;11.50;76.20
68235;DHT22;55052;52.056;5.296;2023-04-24T13:29:45;11.70;76.10
68235;DHT22;55052;52.056;5.296;2023-04-24T13:32:12;11.80;76.80
68235;DHT22;55052;52.056;5.296;2023-04-24T13:34:39;12.00;76.70
68235;DHT22;55052;52.056;5.296;2023-04-24T13:37:06;12.20;76.30
68235;DHT22;55052;52.056;5.296;2023-04-24T13:39:34;12.20;75.70
68235;DHT22;55052;52.056;5.296;2023-04-24T13:42:02;12.30;73.40
68235;DHT22;55052;52.056;5.296;2023-04-24T13:44:30;12.20;72.60
68235;DHT22;55052;52.056;5.296;2023-04-24T13:46:58;12.20;72.70
68235;DHT22;55052;52.056;5.296;2023-04-24T13:49:26;12.40;72.70
68235;DHT22;55052;52.056;5.296;2023-04-24T13:51:54;12.70;72.60
68235;DHT22;55052;52.056;5.296;2023-04-24T13:54:21;13.00;72.20
68235;DHT22;55052;52.056;5.296;2023-04-24T13:56:50;13.20;71.50
68235;DHT22;55052;52.056;5.296;2023-04-24T13:59:17;13.40;70.70
68235;DHT22;55052;52.056;5.296;2023-04-24T14:01:44;13.40;69.70
68235;DHT22;55052;52.056;5.296;2023-04-24T14:04:11;13.30;68.70
68235;DHT22;55052;52.056;5.296;2023-04-24T14:06:39;13.20;67.70
68235;DHT22;55052;52.056;5.296;2023-04-24T14:09:06;13.10;66.60
68235;DHT22;55052;52.056;5.296;2023-04-24T14:11:34;13.10;66.70
68235;DHT22;55052;52.056;5.296;2023-04-24T14:14:00;13.10;66.80
68235;DHT22;55052;52.056;5.296;2023-04-24T14:16:28;13.10;66.50
68235;DHT22;55052;52.056;5.296;2023-04-24T14:18:55;13.00;66.20
68235;DHT22;55052;52.056;5.296;2023-04-24T14:21:22;13.00;66.50
68235;DHT22;55052;52.056;5.296;2023-04-24T14:23:49;12.90;65.80
68235;DHT22;55052;52.056;5.296;2023-04-24T14:26:16;12.70;65.80
68235;DHT22;55052;52.056;5.296;2023-04-24T14:28:43;12.60;66.10
68235;DHT22;55052;52.056;5.296;2023-04-24T14:31:10;12.50;66.80
68235;DHT22;55052;52.056;5.296;2023-04-24T14:33:37;12.40;67.00
68235;DHT22;55052;52.056;5.296;2023-04-24T14:36:04;12.30;67.30
68235;DHT22;55052;52.056;5.296;2023-04-24T14:38:32;12.30;67.70
68235;DHT22;55052;52.056;5.296;2023-04-24T14:40:59;12.30;68.30
68235;DHT22;55052;52.056;5.296;2023-04-24T14:43:28;12.40;67.90
68235;DHT22;55052;52.056;5.296;2023-04-24T14:45:55;12.50;67.50
68235;DHT22;55052;52.056;5.296;2023-04-24T14:48:22;12.40;66.90
68235;DHT22;55052;52.056;5.296;2023-04-24T14:50:49;12.30;66.60
68235;DHT22;55052;52.056;5.296;2023-04-24T14:53:16;12.20;67.00
68235;DHT22;55052;52.056;5.296;2023-04-24T14:55:42;12.20;68.20
68235;DHT22;55052;52.056;5.296;2023-04-24T14:58:09;12.20;68.80
68235;DHT22;55052;52.056;5.296;2023-04-24T15:00:36;12.20;69.00
68235;DHT22;55052;52.056;5.296;2023-04-24T15:03:03;12.20;69.10
68235;DHT22;55052;52.056;5.296;2023-04-24T15:05:31;12.20;69.50
68235;DHT22;55052;52.056;5.296;2023-04-24T15:07:58;12.20;69.60
68235;DHT22;55052;52.056;5.296;2023-04-24T15:10:25;12.30;69.50
68235;DHT22;55052;52.056;5.296;2023-04-24T15:12:52;12.30;69.60
68235;DHT22;55052;52.056;5.296;2023-04-24T15:15:19;12.30;69.90
68235;DHT22;55052;52.056;5.296;2023-04-24T15:17:46;12.30;69.70
68235;DHT22;55052;52.056;5.296;2023-04-24T15:20:12;12.30;69.60
68235;DHT22;55052;52.056;5.296;2023-04-24T15:22:39;12.30;69.90
68235;DHT22;55052;52.056;5.296;2023-04-24T15:25:07;12.30;70.10
68235;DHT22;55052;52.056;5.296;2023-04-24T15:27:44;12.20;70.10
68235;DHT22;55052;52.056;5.296;2023-04-24T15:30:12;12.20;70.00
68235;DHT22;55052;52.056;5.296;2023-04-24T15:32:39;12.10;69.60
68235;DHT22;55052;52.056;5.296;2023-04-24T15:35:07;12.20;69.70
68235;DHT22;55052;52.056;5.296;2023-04-24T15:37:36;12.20;69.70
68235;DHT22;55052;52.056;5.296;2023-04-24T15:40:04;12.40;69.20
68235;DHT22;55052;52.056;5.296;2023-04-24T15:42:34;12.40;69.00
68235;DHT22;55052;52.056;5.296;2023-04-24T15:45:01;12.40;67.90